sensor_id;sensor_type;location;lat;lon;timestamp;P1;durP1;ratioP1;P2;durP2;ratioP2
11090;SDS011;5599;52.210;21.046;2023-03-14T00:00:21;10.73;;;6.57;;
11090;SDS011;5599;52.210;21.046;2023-03-14T00:02:52;8.23;;;6.57;;
11090;SDS011;5599;52.210;21.046;2023-03-14T00:05:22;9.20;;;7.23;;
11090;SDS011;5599;52.210;21.046;2023-03-14T00:07:51;10.23;;;6.70;;
11090;SDS011;5599;52.210;21.046;2023-03-14T00:10:21;11.47;;;7.03;;
11090;SDS011;5599;52.210;21.046;2023-03-14T00:12:50;7.67;;;6.50;;
11090;SDS011;5599;52.210;21.046;2023-03-14T00:15:19;13.03;;;6.37;;
11090;SDS011;5599;52.210;21.046;2023-03-14T00:17:50;9.63;;;7.40;;
11090;SDS011;5599;52.210;21.046;2023-03-14T00:20:20;10.50;;;7.53;;
11090;SDS011;5599;52.210;21.046;2023-03-14T00:22:49;8.97;;;6.40;;
11090;SDS011;5599;52.210;21.046;2023-03-14T00:25:19;9.03;;;7.03;;
11090;SDS011;5599;52.210;21.046;2023-03-14T00:27:49;8.97;;;7.13;;
11090;SDS011;5599;52.210;21.046;2023-03-14T00:30:19;8.27;;;6.50;;
11090;SDS011;5599;52.210;21.046;2023-03-14T00:32:50;9.17;;;6.73;;
11090;SDS011;5599;52.210;21.046;2023-03-14T00:35:19;10.57;;;6.17;;
11090;SDS011;5599;52.210;21.046;2023-03-14T00:37:49;8.90;;;6.70;;
11090;SDS011;5599;52.210;21.046;2023-03-14T00:40:18;8.77;;;7.07;;
11090;SDS011;5599;52.210;21.046;2023-03-14T00:42:48;7.77;;;6.87;;
11090;SDS011;5599;52.210;21.046;2023-03-14T00:45:18;10.40;;;6.60;;
11090;SDS011;5599;52.210;21.046;2023-03-14T00:47:49;12.43;;;7.07;;
11090;SDS011;5599;52.210;21.046;2023-03-14T00:50:19;9.20;;;6.73;;
11090;SDS011;5599;52.210;21.046;2023-03-14T00:52:48;8.10;;;6.07;;
11090;SDS011;5599;52.210;21.046;2023-03-14T00:55:17;8.73;;;6.20;;
11090;SDS011;5599;52.210;21.046;2023-03-14T00:57:46;9.53;;;7.70;;
11090;SDS011;5599;52.210;21.046;2023-03-14T01:00:16;11.27;;;7.23;;
11090;SDS011;5599;52.210;21.046;2023-03-14T01:02:45;8.50;;;7.27;;
11090;SDS011;5599;52.210;21.046;2023-03-14T01:05:17;8.83;;;6.63;;
11090;SDS011;5599;52.210;21.046;2023-03-14T01:07:47;9.70;;;6.00;;
11090;SDS011;5599;52.210;21.046;2023-03-14T01:10:17;9.47;;;6.53;;
11090;SDS011;5599;52.210;21.046;2023-03-14T01:12:46;8.03;;;6.53;;
11090;SDS011;5599;52.210;21.046;2023-03-14T01:15:15;8.30;;;6.47;;
11090;SDS011;5599;52.210;21.046;2023-03-14T01:17:45;9.00;;;6.20;;
11090;SDS011;5599;52.210;21.046;2023-03-14T01:20:16;7.73;;;6.20;;
11090;SDS011;5599;52.210;21.046;2023-03-14T01:22:47;8.20;;;6.57;;
11090;SDS011;5599;52.210;21.046;2023-03-14T01:25:17;6.57;;;5.87;;
11090;SDS011;5599;52.210;21.046;2023-03-14T01:27:46;8.67;;;6.63;;
11090;SDS011;5599;52.210;21.046;2023-03-14T01:30:16;8.23;;;6.47;;
11090;SDS011;5599;52.210;21.046;2023-03-14T01:32:45;9.00;;;6.53;;
11090;SDS011;5599;52.210;21.046;2023-03-14T01:35:15;9.27;;;6.33;;
11090;SDS011;5599;52.210;21.046;2023-03-14T01:37:46;9.13;;;6.57;;
11090;SDS011;5599;52.210;21.046;2023-03-14T01:40:20;8.13;;;6.30;;
11090;SDS011;5599;52.210;21.046;2023-03-14T01:42:54;7.50;;;6.00;;
11090;SDS011;5599;52.210;21.046;2023-03-14T01:48:42;9.33;;;6.37;;
11090;SDS011;5599;52.210;21.046;2023-03-14T01:51:17;8.83;;;6.50;;
11090;SDS011;5599;52.210;21.046;2023-03-14T01:53:51;8.50;;;6.30;;
11090;SDS011;5599;52.210;21.046;2023-03-14T01:56:23;7.03;;;5.77;;
11090;SDS011;5599;52.210;21.046;2023-03-14T01:58:52;8.00;;;5.67;;
11090;SDS011;5599;52.210;21.046;2023-03-14T02:05:14;9.80;;;6.23;;
11090;SDS011;5599;52.210;21.046;2023-03-14T02:07:53;9.40;;;6.23;;
11090;SDS011;5599;52.210;21.046;2023-03-14T02:10:34;8.17;;;6.43;;
11090;SDS011;5599;52.210;21.046;2023-03-14T02:13:08;8.03;;;5.90;;
11090;SDS011;5599;52.210;21.046;2023-03-14T02:15:57;8.60;;;6.00;;
11090;SDS011;5599;52.210;21.046;2023-03-14T02:18:56;7.87;;;6.07;;
11090;SDS011;5599;52.210;21.046;2023-03-14T02:22:02;7.53;;;6.07;;
11090;SDS011;5599;52.210;21.046;2023-03-14T02:24:45;9.87;;;5.97;;
11090;SDS011;5599;52.210;21.046;2023-03-14T02:27:20;8.23;;;6.43;;
11090;SDS011;5599;52.210;21.046;2023-03-14T02:29:50;8.10;;;6.37;;
11090;SDS011;5599;52.210;21.046;2023-03-14T02:32:21;9.90;;;5.80;;
11090;SDS011;5599;52.210;21.046;2023-03-14T02:34:53;7.40;;;5.70;;
11090;SDS011;5599;52.210;21.046;2023-03-14T02:37:26;6.37;;;5.30;;
11090;SDS011;5599;52.210;21.046;2023-03-14T02:40:01;7.57;;;5.43;;
11090;SDS011;5599;52.210;21.046;2023-03-14T02:42:34;9.00;;;5.87;;
11090;SDS011;5599;52.210;21.046;2023-03-14T02:48:02;6.43;;;5.50;;
11090;SDS011;5599;52.210;21.046;2023-03-14T02:50:37;6.17;;;5.17;;
11090;SDS011;5599;52.210;21.046;2023-03-14T02:53:07;6.30;;;5.23;;
11090;SDS011;5599;52.210;21.046;2023-03-14T02:55:36;7.33;;;5.70;;
11090;SDS011;5599;52.210;21.046;2023-03-14T02:58:12;7.87;;;5.57;;
11090;SDS011;5599;52.210;21.046;2023-03-14T03:00:43;7.77;;;5.10;;
11090;SDS011;5599;52.210;21.046;2023-03-14T03:03:12;6.17;;;5.20;;
11090;SDS011;5599;52.210;21.046;2023-03-14T03:05:42;7.40;;;5.57;;
11090;SDS011;5599;52.210;21.046;2023-03-14T03:08:11;6.77;;;5.10;;
11090;SDS011;5599;52.210;21.046;2023-03-14T03:10:41;9.00;;;5.10;;
11090;SDS011;5599;52.210;21.046;2023-03-14T03:13:11;7.67;;;4.90;;
11090;SDS011;5599;52.210;21.046;2023-03-14T03:15:42;7.13;;;5.23;;
11090;SDS011;5599;52.210;21.046;2023-03-14T03:18:11;8.27;;;5.27;;
11090;SDS011;5599;52.210;21.046;2023-03-14T03:20:42;6.20;;;5.03;;
11090;SDS011;5599;52.210;21.046;2023-03-14T03:23:11;6.10;;;4.67;;
11090;SDS011;5599;52.210;21.046;2023-03-14T03:25:41;8.83;;;5.20;;
11090;SDS011;5599;52.210;21.046;2023-03-14T03:28:11;5.93;;;5.20;;
11090;SDS011;5599;52.210;21.046;2023-03-14T03:30:41;8.60;;;4.60;;
11090;SDS011;5599;52.210;21.046;2023-03-14T03:33:11;5.87;;;4.53;;
11090;SDS011;5599;52.210;21.046;2023-03-14T03:35:44;5.80;;;4.63;;
11090;SDS011;5599;52.210;21.046;2023-03-14T03:38:18;8.80;;;5.13;;
11090;SDS011;5599;52.210;21.046;2023-03-14T03:40:50;7.13;;;5.27;;
11090;SDS011;5599;52.210;21.046;2023-03-14T03:43:25;6.23;;;4.80;;
11090;SDS011;5599;52.210;21.046;2023-03-14T03:45:54;7.53;;;5.00;;
11090;SDS011;5599;52.210;21.046;2023-03-14T03:48:24;8.23;;;5.43;;
11090;SDS011;5599;52.210;21.046;2023-03-14T03:50:53;7.40;;;5.47;;
11090;SDS011;5599;52.210;21.046;2023-03-14T03:53:23;10.73;;;4.70;;
11090;SDS011;5599;52.210;21.046;2023-03-14T03:56:04;7.50;;;5.33;;
11090;SDS011;5599;52.210;21.046;2023-03-14T03:58:35;8.40;;;4.90;;
11090;SDS011;5599;52.210;21.046;2023-03-14T04:01:06;6.60;;;5.00;;
11090;SDS011;5599;52.210;21.046;2023-03-14T04:03:36;5.50;;;4.87;;
11090;SDS011;5599;52.210;21.046;2023-03-14T04:06:07;8.23;;;5.50;;
11090;SDS011;5599;52.210;21.046;2023-03-14T04:08:39;8.57;;;4.83;;
11090;SDS011;5599;52.210;21.046;2023-03-14T04:11:13;6.53;;;5.20;;
11090;SDS011;5599;52.210;21.046;2023-03-14T04:14:04;5.90;;;5.30;;
11090;SDS011;5599;52.210;21.046;2023-03-14T04:16:34;6.47;;;4.53;;
11090;SDS011;5599;52.210;21.046;2023-03-14T04:19:10;6.67;;;5.33;;
11090;SDS011;5599;52.210;21.046;2023-03-14T04:21:39;5.90;;;5.20;;
11090;SDS011;5599;52.210;21.046;2023-03-14T04:24:18;7.57;;;5.07;;
11090;SDS011;5599;52.210;21.046;2023-03-14T04:26:48;7.67;;;4.93;;
11090;SDS011;5599;52.210;21.046;2023-03-14T04:29:19;7.80;;;4.80;;
11090;SDS011;5599;52.210;21.046;2023-03-14T04:31:48;7.50;;;5.23;;
11090;SDS011;5599;52.210;21.046;2023-03-14T04:34:18;7.47;;;4.80;;
11090;SDS011;5599;52.210;21.046;2023-03-14T04:36:51;8.70;;;4.87;;
11090;SDS011;5599;52.210;21.046;2023-03-14T04:39:28;5.63;;;4.60;;
11090;SDS011;5599;52.210;21.046;2023-03-14T04:42:24;7.27;;;4.73;;
11090;SDS011;5599;52.210;21.046;2023-03-14T04:44:55;8.93;;;4.90;;
11090;SDS011;5599;52.210;21.046;2023-03-14T04:47:27;5.23;;;4.60;;
11090;SDS011;5599;52.210;21.046;2023-03-14T04:49:57;7.60;;;4.53;;
11090;SDS011;5599;52.210;21.046;2023-03-14T04:52:28;5.43;;;4.43;;
11090;SDS011;5599;52.210;21.046;2023-03-14T04:54:58;9.00;;;4.50;;
11090;SDS011;5599;52.210;21.046;2023-03-14T04:57:28;14.67;;;4.67;;
11090;SDS011;5599;52.210;21.046;2023-03-14T05:00:00;8.03;;;4.50;;
11090;SDS011;5599;52.210;21.046;2023-03-14T05:02:51;5.27;;;4.00;;
11090;SDS011;5599;52.210;21.046;2023-03-14T05:05:46;6.63;;;4.80;;
11090;SDS011;5599;52.210;21.046;2023-03-14T05:08:35;6.60;;;4.73;;
11090;SDS011;5599;52.210;21.046;2023-03-14T05:11:16;5.97;;;4.53;;
11090;SDS011;5599;52.210;21.046;2023-03-14T05:14:11;7.50;;;4.60;;
11090;SDS011;5599;52.210;21.046;2023-03-14T05:17:00;7.93;;;5.27;;
11090;SDS011;5599;52.210;21.046;2023-03-14T05:19:40;7.07;;;5.03;;
11090;SDS011;5599;52.210;21.046;2023-03-14T05:22:09;5.80;;;4.60;;
11090;SDS011;5599;52.210;21.046;2023-03-14T05:24:52;6.33;;;4.70;;
11090;SDS011;5599;52.210;21.046;2023-03-14T05:27:44;5.83;;;4.70;;
11090;SDS011;5599;52.210;21.046;2023-03-14T05:30:31;7.27;;;4.97;;
11090;SDS011;5599;52.210;21.046;2023-03-14T05:33:32;6.80;;;4.70;;
11090;SDS011;5599;52.210;21.046;2023-03-14T05:36:33;7.23;;;4.83;;
11090;SDS011;5599;52.210;21.046;2023-03-14T05:39:28;5.93;;;4.47;;
11090;SDS011;5599;52.210;21.046;2023-03-14T05:42:21;8.80;;;5.00;;
11090;SDS011;5599;52.210;21.046;2023-03-14T05:45:22;9.23;;;4.67;;
11090;SDS011;5599;52.210;21.046;2023-03-14T05:48:21;7.00;;;4.57;;
11090;SDS011;5599;52.210;21.046;2023-03-14T05:51:05;6.10;;;4.57;;
11090;SDS011;5599;52.210;21.046;2023-03-14T05:53:58;10.57;;;4.60;;
11090;SDS011;5599;52.210;21.046;2023-03-14T05:56:44;8.30;;;4.77;;
11090;SDS011;5599;52.210;21.046;2023-03-14T05:59:28;5.20;;;4.60;;
11090;SDS011;5599;52.210;21.046;2023-03-14T06:02:16;11.47;;;5.40;;
11090;SDS011;5599;52.210;21.046;2023-03-14T06:04:55;6.57;;;3.83;;
11090;SDS011;5599;52.210;21.046;2023-03-14T06:07:26;11.70;;;4.43;;
11090;SDS011;5599;52.210;21.046;2023-03-14T06:09:55;5.30;;;4.17;;
11090;SDS011;5599;52.210;21.046;2023-03-14T06:12:26;5.53;;;3.83;;
11090;SDS011;5599;52.210;21.046;2023-03-14T06:14:56;8.82;;;4.47;;
11090;SDS011;5599;52.210;21.046;2023-03-14T06:17:26;7.32;;;4.78;;
11090;SDS011;5599;52.210;21.046;2023-03-14T06:20:07;6.88;;;4.28;;
11090;SDS011;5599;52.210;21.046;2023-03-14T06:22:39;4.93;;;4.10;;
11090;SDS011;5599;52.210;21.046;2023-03-14T06:25:11;8.27;;;7.03;;
11090;SDS011;5599;52.210;21.046;2023-03-14T06:27:44;4.68;;;4.15;;
11090;SDS011;5599;52.210;21.046;2023-03-14T06:30:15;7.68;;;4.00;;
11090;SDS011;5599;52.210;21.046;2023-03-14T06:32:45;5.80;;;3.90;;
11090;SDS011;5599;52.210;21.046;2023-03-14T06:35:16;6.30;;;4.03;;
11090;SDS011;5599;52.210;21.046;2023-03-14T06:37:47;5.87;;;4.30;;
11090;SDS011;5599;52.210;21.046;2023-03-14T06:40:17;10.43;;;5.00;;
11090;SDS011;5599;52.210;21.046;2023-03-14T06:43:00;6.53;;;4.40;;
11090;SDS011;5599;52.210;21.046;2023-03-14T06:45:31;5.57;;;4.17;;
11090;SDS011;5599;52.210;21.046;2023-03-14T06:48:02;7.97;;;4.27;;
11090;SDS011;5599;52.210;21.046;2023-03-14T06:50:39;6.50;;;3.77;;
11090;SDS011;5599;52.210;21.046;2023-03-14T06:53:10;4.93;;;4.20;;
11090;SDS011;5599;52.210;21.046;2023-03-14T06:55:41;5.90;;;4.30;;
11090;SDS011;5599;52.210;21.046;2023-03-14T06:58:15;6.00;;;4.20;;
11090;SDS011;5599;52.210;21.046;2023-03-14T07:00:45;5.20;;;4.10;;
11090;SDS011;5599;52.210;21.046;2023-03-14T07:03:20;4.80;;;4.13;;
11090;SDS011;5599;52.210;21.046;2023-03-14T07:05:50;5.27;;;4.30;;
11090;SDS011;5599;52.210;21.046;2023-03-14T07:08:22;5.47;;;3.90;;
11090;SDS011;5599;52.210;21.046;2023-03-14T07:10:51;8.23;;;4.00;;
11090;SDS011;5599;52.210;21.046;2023-03-14T07:13:21;7.20;;;4.53;;
11090;SDS011;5599;52.210;21.046;2023-03-14T07:15:59;5.38;;;4.57;;
11090;SDS011;5599;52.210;21.046;2023-03-14T07:18:29;4.25;;;3.83;;
11090;SDS011;5599;52.210;21.046;2023-03-14T07:20:58;4.70;;;4.20;;
11090;SDS011;5599;52.210;21.046;2023-03-14T07:23:29;7.15;;;4.63;;
11090;SDS011;5599;52.210;21.046;2023-03-14T07:25:58;5.57;;;4.15;;
11090;SDS011;5599;52.210;21.046;2023-03-14T07:28:30;5.30;;;4.45;;
11090;SDS011;5599;52.210;21.046;2023-03-14T07:31:19;7.35;;;4.20;;
11090;SDS011;5599;52.210;21.046;2023-03-14T07:33:48;11.73;;;4.40;;
11090;SDS011;5599;52.210;21.046;2023-03-14T07:36:19;8.05;;;4.47;;
11090;SDS011;5599;52.210;21.046;2023-03-14T07:38:58;8.63;;;4.13;;
11090;SDS011;5599;52.210;21.046;2023-03-14T07:41:46;5.93;;;4.07;;
11090;SDS011;5599;52.210;21.046;2023-03-14T07:44:39;4.38;;;3.95;;
11090;SDS011;5599;52.210;21.046;2023-03-14T07:47:08;7.20;;;4.20;;
11090;SDS011;5599;52.210;21.046;2023-03-14T07:49:38;4.97;;;3.88;;
11090;SDS011;5599;52.210;21.046;2023-03-14T07:52:07;7.60;;;4.28;;
11090;SDS011;5599;52.210;21.046;2023-03-14T07:54:38;8.38;;;4.43;;
11090;SDS011;5599;52.210;21.046;2023-03-14T07:57:08;10.30;;;4.38;;
11090;SDS011;5599;52.210;21.046;2023-03-14T07:59:38;7.25;;;4.28;;
11090;SDS011;5599;52.210;21.046;2023-03-14T08:02:08;5.35;;;3.88;;
11090;SDS011;5599;52.210;21.046;2023-03-14T08:04:40;5.03;;;3.83;;
11090;SDS011;5599;52.210;21.046;2023-03-14T08:07:09;5.45;;;4.18;;
11090;SDS011;5599;52.210;21.046;2023-03-14T08:09:40;6.03;;;3.58;;
11090;SDS011;5599;52.210;21.046;2023-03-14T08:12:10;6.10;;;4.03;;
11090;SDS011;5599;52.210;21.046;2023-03-14T08:14:39;4.60;;;3.72;;
11090;SDS011;5599;52.210;21.046;2023-03-14T08:17:09;4.78;;;3.92;;
11090;SDS011;5599;52.210;21.046;2023-03-14T08:19:39;8.80;;;5.97;;
11090;SDS011;5599;52.210;21.046;2023-03-14T08:22:10;4.63;;;4.13;;
11090;SDS011;5599;52.210;21.046;2023-03-14T08:24:40;5.90;;;4.90;;
11090;SDS011;5599;52.210;21.046;2023-03-14T08:27:10;6.47;;;4.82;;
11090;SDS011;5599;52.210;21.046;2023-03-14T08:29:41;6.80;;;4.63;;
11090;SDS011;5599;52.210;21.046;2023-03-14T08:32:11;7.60;;;4.30;;
11090;SDS011;5599;52.210;21.046;2023-03-14T08:34:40;7.97;;;3.92;;
11090;SDS011;5599;52.210;21.046;2023-03-14T08:37:09;5.43;;;4.30;;
11090;SDS011;5599;52.210;21.046;2023-03-14T08:39:54;5.53;;;4.47;;
11090;SDS011;5599;52.210;21.046;2023-03-14T08:42:24;5.32;;;4.20;;
11090;SDS011;5599;52.210;21.046;2023-03-14T08:44:53;6.20;;;4.65;;
11090;SDS011;5599;52.210;21.046;2023-03-14T08:47:22;5.07;;;4.30;;
11090;SDS011;5599;52.210;21.046;2023-03-14T08:49:52;5.13;;;4.00;;
11090;SDS011;5599;52.210;21.046;2023-03-14T08:52:22;6.28;;;3.90;;
11090;SDS011;5599;52.210;21.046;2023-03-14T08:54:51;5.22;;;3.88;;
11090;SDS011;5599;52.210;21.046;2023-03-14T08:57:22;5.57;;;4.03;;
11090;SDS011;5599;52.210;21.046;2023-03-14T08:59:54;7.65;;;4.25;;
11090;SDS011;5599;52.210;21.046;2023-03-14T09:02:24;4.50;;;4.10;;
11090;SDS011;5599;52.210;21.046;2023-03-14T09:04:54;5.18;;;4.22;;
11090;SDS011;5599;52.210;21.046;2023-03-14T09:07:23;4.90;;;4.35;;
11090;SDS011;5599;52.210;21.046;2023-03-14T09:09:54;5.05;;;4.18;;
11090;SDS011;5599;52.210;21.046;2023-03-14T09:12:23;9.18;;;4.40;;
11090;SDS011;5599;52.210;21.046;2023-03-14T09:14:53;4.63;;;4.22;;
11090;SDS011;5599;52.210;21.046;2023-03-14T09:17:22;5.30;;;4.50;;
11090;SDS011;5599;52.210;21.046;2023-03-14T09:19:52;6.05;;;4.20;;
11090;SDS011;5599;52.210;21.046;2023-03-14T09:22:21;6.28;;;3.50;;
11090;SDS011;5599;52.210;21.046;2023-03-14T09:24:50;6.53;;;3.65;;
11090;SDS011;5599;52.210;21.046;2023-03-14T09:27:21;7.00;;;3.95;;
11090;SDS011;5599;52.210;21.046;2023-03-14T09:29:50;5.35;;;3.85;;
11090;SDS011;5599;52.210;21.046;2023-03-14T09:32:20;5.97;;;3.72;;
11090;SDS011;5599;52.210;21.046;2023-03-14T09:34:50;9.75;;;5.35;;
11090;SDS011;5599;52.210;21.046;2023-03-14T09:37:19;6.38;;;4.00;;
11090;SDS011;5599;52.210;21.046;2023-03-14T09:39:48;5.10;;;3.88;;
11090;SDS011;5599;52.210;21.046;2023-03-14T09:42:18;5.30;;;3.92;;
11090;SDS011;5599;52.210;21.046;2023-03-14T09:44:53;7.18;;;4.00;;
11090;SDS011;5599;52.210;21.046;2023-03-14T09:47:25;5.80;;;3.85;;
11090;SDS011;5599;52.210;21.046;2023-03-14T09:49:56;5.03;;;3.58;;
11090;SDS011;5599;52.210;21.046;2023-03-14T09:52:28;5.28;;;3.75;;
11090;SDS011;5599;52.210;21.046;2023-03-14T09:54:59;5.88;;;3.67;;
11090;SDS011;5599;52.210;21.046;2023-03-14T09:57:33;6.10;;;3.55;;
11090;SDS011;5599;52.210;21.046;2023-03-14T10:00:05;5.90;;;3.65;;
11090;SDS011;5599;52.210;21.046;2023-03-14T10:02:43;4.50;;;3.33;;
11090;SDS011;5599;52.210;21.046;2023-03-14T10:05:18;5.53;;;3.63;;
11090;SDS011;5599;52.210;21.046;2023-03-14T10:07:49;4.78;;;3.55;;
11090;SDS011;5599;52.210;21.046;2023-03-14T10:10:19;4.43;;;3.60;;
11090;SDS011;5599;52.210;21.046;2023-03-14T10:12:56;5.13;;;3.47;;
11090;SDS011;5599;52.210;21.046;2023-03-14T10:15:27;5.13;;;3.30;;
11090;SDS011;5599;52.210;21.046;2023-03-14T10:18:01;4.15;;;3.50;;
11090;SDS011;5599;52.210;21.046;2023-03-14T10:20:37;4.18;;;3.10;;
11090;SDS011;5599;52.210;21.046;2023-03-14T10:23:18;5.55;;;3.42;;
11090;SDS011;5599;52.210;21.046;2023-03-14T10:25:59;5.70;;;3.80;;
11090;SDS011;5599;52.210;21.046;2023-03-14T10:28:34;3.85;;;3.45;;
11090;SDS011;5599;52.210;21.046;2023-03-14T10:31:07;5.93;;;3.67;;
11090;SDS011;5599;52.210;21.046;2023-03-14T10:33:37;5.88;;;3.50;;
11090;SDS011;5599;52.210;21.046;2023-03-14T10:36:15;4.50;;;3.30;;
11090;SDS011;5599;52.210;21.046;2023-03-14T10:38:49;5.57;;;3.30;;
11090;SDS011;5599;52.210;21.046;2023-03-14T10:41:26;4.95;;;3.03;;
11090;SDS011;5599;52.210;21.046;2023-03-14T10:44:00;7.30;;;3.58;;
11090;SDS011;5599;52.210;21.046;2023-03-14T10:46:31;7.43;;;3.50;;
11090;SDS011;5599;52.210;21.046;2023-03-14T10:49:23;4.25;;;3.13;;
11090;SDS011;5599;52.210;21.046;2023-03-14T10:51:55;5.75;;;3.38;;
11090;SDS011;5599;52.210;21.046;2023-03-14T10:54:29;5.97;;;3.38;;
11090;SDS011;5599;52.210;21.046;2023-03-14T10:57:00;4.65;;;3.65;;
11090;SDS011;5599;52.210;21.046;2023-03-14T10:59:34;6.93;;;3.85;;
11090;SDS011;5599;52.210;21.046;2023-03-14T11:02:10;5.25;;;3.40;;
11090;SDS011;5599;52.210;21.046;2023-03-14T11:04:59;6.47;;;3.60;;
11090;SDS011;5599;52.210;21.046;2023-03-14T11:07:38;6.65;;;3.58;;
11090;SDS011;5599;52.210;21.046;2023-03-14T11:10:11;4.43;;;3.63;;
11090;SDS011;5599;52.210;21.046;2023-03-14T11:12:53;6.47;;;3.38;;
11090;SDS011;5599;52.210;21.046;2023-03-14T11:15:36;3.78;;;3.22;;
11090;SDS011;5599;52.210;21.046;2023-03-14T11:18:16;4.20;;;3.22;;
11090;SDS011;5599;52.210;21.046;2023-03-14T11:21:12;3.45;;;3.10;;
11090;SDS011;5599;52.210;21.046;2023-03-14T11:23:48;5.13;;;3.40;;
11090;SDS011;5599;52.210;21.046;2023-03-14T11:26:29;4.40;;;3.40;;
11090;SDS011;5599;52.210;21.046;2023-03-14T11:29:09;4.15;;;3.10;;
11090;SDS011;5599;52.210;21.046;2023-03-14T11:31:49;4.32;;;3.22;;
11090;SDS011;5599;52.210;21.046;2023-03-14T11:34:22;5.68;;;3.42;;
11090;SDS011;5599;52.210;21.046;2023-03-14T11:36:58;9.30;;;4.55;;
11090;SDS011;5599;52.210;21.046;2023-03-14T11:39:34;5.03;;;3.28;;
11090;SDS011;5599;52.210;21.046;2023-03-14T11:42:08;4.80;;;3.40;;
11090;SDS011;5599;52.210;21.046;2023-03-14T11:44:41;5.07;;;3.30;;
11090;SDS011;5599;52.210;21.046;2023-03-14T11:47:15;4.95;;;3.30;;
11090;SDS011;5599;52.210;21.046;2023-03-14T11:49:48;5.85;;;3.90;;
11090;SDS011;5599;52.210;21.046;2023-03-14T11:52:22;5.40;;;3.83;;
11090;SDS011;5599;52.210;21.046;2023-03-14T11:54:57;8.27;;;3.83;;
11090;SDS011;5599;52.210;21.046;2023-03-14T11:57:31;7.10;;;4.05;;
11090;SDS011;5599;52.210;21.046;2023-03-14T12:00:03;6.25;;;3.75;;
11090;SDS011;5599;52.210;21.046;2023-03-14T12:02:45;6.55;;;3.90;;
11090;SDS011;5599;52.210;21.046;2023-03-14T12:05:28;6.10;;;3.92;;
11090;SDS011;5599;52.210;21.046;2023-03-14T12:08:17;7.45;;;4.43;;
11090;SDS011;5599;52.210;21.046;2023-03-14T12:14:17;5.43;;;4.30;;
11090;SDS011;5599;52.210;21.046;2023-03-14T12:16:49;7.30;;;4.40;;
11090;SDS011;5599;52.210;21.046;2023-03-14T12:19:30;7.88;;;4.30;;
11090;SDS011;5599;52.210;21.046;2023-03-14T12:24:51;7.60;;;4.40;;
11090;SDS011;5599;52.210;21.046;2023-03-14T12:27:42;8.77;;;4.30;;
11090;SDS011;5599;52.210;21.046;2023-03-14T12:30:16;6.65;;;4.50;;
11090;SDS011;5599;52.210;21.046;2023-03-14T12:36:02;5.70;;;4.72;;
11090;SDS011;5599;52.210;21.046;2023-03-14T12:38:52;7.00;;;4.35;;
11090;SDS011;5599;52.210;21.046;2023-03-14T12:41:45;7.25;;;4.68;;
11090;SDS011;5599;52.210;21.046;2023-03-14T12:50:30;8.98;;;5.00;;
11090;SDS011;5599;52.210;21.046;2023-03-14T12:56:08;7.35;;;5.07;;
11090;SDS011;5599;52.210;21.046;2023-03-14T12:58:49;6.93;;;5.17;;
11090;SDS011;5599;52.210;21.046;2023-03-14T13:01:28;9.02;;;4.72;;
11090;SDS011;5599;52.210;21.046;2023-03-14T13:03:57;8.90;;;5.13;;
11090;SDS011;5599;52.210;21.046;2023-03-14T13:12:29;7.60;;;5.13;;
11090;SDS011;5599;52.210;21.046;2023-03-14T13:15:13;7.30;;;5.60;;
11090;SDS011;5599;52.210;21.046;2023-03-14T13:17:47;6.30;;;5.23;;
11090;SDS011;5599;52.210;21.046;2023-03-14T13:20:19;7.43;;;5.13;;
11090;SDS011;5599;52.210;21.046;2023-03-14T13:22:53;6.93;;;5.20;;
11090;SDS011;5599;52.210;21.046;2023-03-14T13:25:22;7.20;;;5.20;;
11090;SDS011;5599;52.210;21.046;2023-03-14T13:27:53;9.40;;;5.97;;
11090;SDS011;5599;52.210;21.046;2023-03-14T13:30:24;8.43;;;5.50;;
11090;SDS011;5599;52.210;21.046;2023-03-14T13:32:55;8.00;;;4.90;;
11090;SDS011;5599;52.210;21.046;2023-03-14T13:35:26;9.33;;;4.90;;
11090;SDS011;5599;52.210;21.046;2023-03-14T13:37:57;6.50;;;4.80;;
11090;SDS011;5599;52.210;21.046;2023-03-14T13:40:43;7.50;;;5.03;;
11090;SDS011;5599;52.210;21.046;2023-03-14T13:43:17;10.73;;;5.13;;
11090;SDS011;5599;52.210;21.046;2023-03-14T13:45:49;7.33;;;5.33;;
11090;SDS011;5599;52.210;21.046;2023-03-14T13:48:25;6.90;;;5.77;;
11090;SDS011;5599;52.210;21.046;2023-03-14T13:50:58;5.97;;;5.00;;
11090;SDS011;5599;52.210;21.046;2023-03-14T13:53:30;6.50;;;4.87;;
11090;SDS011;5599;52.210;21.046;2023-03-14T13:56:01;6.33;;;4.77;;
11090;SDS011;5599;52.210;21.046;2023-03-14T13:58:33;7.60;;;5.03;;
11090;SDS011;5599;52.210;21.046;2023-03-14T14:01:11;7.27;;;5.53;;
11090;SDS011;5599;52.210;21.046;2023-03-14T14:03:44;7.93;;;5.17;;
11090;SDS011;5599;52.210;21.046;2023-03-14T14:06:29;7.60;;;6.10;;
11090;SDS011;5599;52.210;21.046;2023-03-14T14:09:01;8.67;;;5.47;;
11090;SDS011;5599;52.210;21.046;2023-03-14T14:11:41;11.07;;;5.50;;
11090;SDS011;5599;52.210;21.046;2023-03-14T14:14:32;8.13;;;5.47;;
11090;SDS011;5599;52.210;21.046;2023-03-14T14:17:08;7.00;;;5.53;;
11090;SDS011;5599;52.210;21.046;2023-03-14T14:19:41;8.53;;;5.67;;
11090;SDS011;5599;52.210;21.046;2023-03-14T14:22:12;8.80;;;6.07;;
11090;SDS011;5599;52.210;21.046;2023-03-14T14:24:42;8.67;;;5.90;;
11090;SDS011;5599;52.210;21.046;2023-03-14T14:27:13;9.10;;;5.47;;
11090;SDS011;5599;52.210;21.046;2023-03-14T14:29:55;7.77;;;5.77;;
11090;SDS011;5599;52.210;21.046;2023-03-14T14:32:26;7.63;;;5.70;;
11090;SDS011;5599;52.210;21.046;2023-03-14T14:35:02;10.63;;;5.97;;
11090;SDS011;5599;52.210;21.046;2023-03-14T14:37:33;12.13;;;6.50;;
11090;SDS011;5599;52.210;21.046;2023-03-14T14:40:09;7.50;;;5.60;;
11090;SDS011;5599;52.210;21.046;2023-03-14T14:42:44;10.47;;;5.43;;
11090;SDS011;5599;52.210;21.046;2023-03-14T14:45:18;7.37;;;5.20;;
11090;SDS011;5599;52.210;21.046;2023-03-14T14:47:49;11.27;;;5.37;;
11090;SDS011;5599;52.210;21.046;2023-03-14T14:50:25;7.17;;;5.43;;
11090;SDS011;5599;52.210;21.046;2023-03-14T14:52:58;10.77;;;5.63;;
11090;SDS011;5599;52.210;21.046;2023-03-14T14:55:29;10.23;;;5.77;;
11090;SDS011;5599;52.210;21.046;2023-03-14T14:58:11;5.90;;;4.63;;
11090;SDS011;5599;52.210;21.046;2023-03-14T15:00:54;7.20;;;5.63;;
11090;SDS011;5599;52.210;21.046;2023-03-14T15:03:27;9.43;;;5.30;;
11090;SDS011;5599;52.210;21.046;2023-03-14T15:05:58;5.83;;;5.03;;
11090;SDS011;5599;52.210;21.046;2023-03-14T15:08:28;7.20;;;5.37;;
11090;SDS011;5599;52.210;21.046;2023-03-14T15:10:57;6.97;;;5.27;;
11090;SDS011;5599;52.210;21.046;2023-03-14T15:13:27;6.97;;;5.23;;
11090;SDS011;5599;52.210;21.046;2023-03-14T15:15:58;8.20;;;5.67;;
11090;SDS011;5599;52.210;21.046;2023-03-14T15:18:28;7.83;;;5.33;;
11090;SDS011;5599;52.210;21.046;2023-03-14T15:20:58;7.67;;;5.50;;
11090;SDS011;5599;52.210;21.046;2023-03-14T15:23:28;7.07;;;5.60;;
11090;SDS011;5599;52.210;21.046;2023-03-14T15:25:58;7.27;;;5.23;;
11090;SDS011;5599;52.210;21.046;2023-03-14T15:28:31;8.70;;;5.63;;
11090;SDS011;5599;52.210;21.046;2023-03-14T15:31:02;8.10;;;5.20;;
11090;SDS011;5599;52.210;21.046;2023-03-14T15:33:33;7.83;;;5.90;;
11090;SDS011;5599;52.210;21.046;2023-03-14T15:36:02;10.03;;;7.37;;
11090;SDS011;5599;52.210;21.046;2023-03-14T15:38:32;6.37;;;5.57;;
11090;SDS011;5599;52.210;21.046;2023-03-14T15:41:02;7.93;;;5.87;;
11090;SDS011;5599;52.210;21.046;2023-03-14T15:43:35;8.00;;;5.23;;
11090;SDS011;5599;52.210;21.046;2023-03-14T15:46:07;7.37;;;5.70;;
11090;SDS011;5599;52.210;21.046;2023-03-14T15:48:37;6.60;;;5.17;;
11090;SDS011;5599;52.210;21.046;2023-03-14T15:51:07;8.00;;;6.40;;
11090;SDS011;5599;52.210;21.046;2023-03-14T15:53:37;9.33;;;6.30;;
11090;SDS011;5599;52.210;21.046;2023-03-14T15:56:07;8.03;;;6.67;;
11090;SDS011;5599;52.210;21.046;2023-03-14T15:58:41;8.33;;;6.63;;
11090;SDS011;5599;52.210;21.046;2023-03-14T16:01:15;10.67;;;6.83;;